Stations météo

Publicité
Zugspitze, Allemagne (10961): Température de l'air & dewpoint: 16.09.2018 05:00:00 - 22.09.2018 05:00:00 (CEST)Zugspitze, Allemagne (10961): Vitesse du vent & gusts: 16.09.2018 05:00:00 - 22.09.2018 05:00:00 (CEST)Zugspitze, Allemagne (10961): Direction du vent: 16.09.2018 05:00:00 - 22.09.2018 05:00:00 (CEST)Zugspitze, Allemagne (10961): visibility: 16.09.2018 05:00:00 - 22.09.2018 05:00:00 (CEST)Zugspitze, Allemagne (10961): Ensoleillement: 16.09.2018 05:00:00 - 22.09.2018 05:00:00 (CEST)
Date & Time tt [°C] td [°C] ff [km/h] ff [knt] fx [km/h] fx [knt] dd vv [km] sd [min]
22.09.2018 05:00:00 -1,7 -1,7 33 18 59 32 W 0,1 0
22.09.2018 04:00:00 0,6 0,6 37 20 50 27 WSW 0,1 0
22.09.2018 03:00:00 0,8 0,8 24 13 51 27 WSW 0,1 0
22.09.2018 02:00:00 1,7 1,7 34 18 57 31 WSW 0,2 0
22.09.2018 01:00:00 1,4 1,4 19 11 36 19 WSW 0,1 0
22.09.2018 00:00:00 2,5 2,5 10 5 47 25 WSW 0,1 0
21.09.2018 23:00:00 3,3 3,1 11 6 40 22 NW - 0
21.09.2018 22:00:00 4,4 4,3 4 2 20 11 NW - 0
21.09.2018 21:00:00 4,7 4,6 13 7 34 18 SSE - 0
21.09.2018 20:00:00 5,1 3,7 7 4 30 16 SW 3,7 0
21.09.2018 19:00:00 6,3 2,0 16 9 35 19 WSW 72 0
21.09.2018 18:00:00 6,7 1,5 22 12 39 21 WSW 72 6
21.09.2018 17:00:00 7,0 2,9 16 9 25 14 SW 61 1
21.09.2018 16:00:00 7,4 3,5 11 6 29 16 SE 52 52
21.09.2018 15:00:00 8,6 3,7 16 9 24 13 SSE 58 56
21.09.2018 14:00:00 7,8 2,2 16 9 28 15 SSE 47 58
21.09.2018 13:00:00 8,2 1,7 16 9 28 15 SSE 75 60
21.09.2018 12:00:00 6,9 1,1 13 7 27 15 SSE 52 60
21.09.2018 11:00:00 5,9 1,0 22 12 34 18 WSW 60 60
21.09.2018 10:00:00 5,2 0,8 26 14 35 19 WSW 51 60
21.09.2018 09:00:00 5,0 1,1 21 11 41 22 WSW 54 60
21.09.2018 08:00:00 5,0 1,2 23 13 43 23 WSW 53 41
21.09.2018 07:00:00 4,7 1,0 17 9 34 19 WSW 55 0
21.09.2018 06:00:00 5,1 -0,6 17 9 41 22 WSW 69 0
21.09.2018 05:00:00 5,4 -0,6 33 18 50 27 WSW 68 0
21.09.2018 04:00:00 5,1 0,3 27 14 44 24 WSW 75 0
21.09.2018 03:00:00 5,3 0,0 23 12 38 20 SW 75 0
21.09.2018 02:00:00 5,4 -0,1 22 12 35 19 SW 63 0
21.09.2018 01:00:00 5,6 0,0 24 13 33 18 SW 75 0
21.09.2018 00:00:00 5,6 -0,1 19 10 28 15 SW 75 0
20.09.2018 23:00:00 5,7 -0,2 16 9 29 16 WSW 75 0
20.09.2018 22:00:00 6,0 -0,5 17 9 27 15 WSW 73 0
20.09.2018 21:00:00 6,4 -1,2 19 11 26 14 SSW 75 0
20.09.2018 20:00:00 5,7 -1,4 16 9 21 11 SE 75 20
20.09.2018 19:00:00 7,1 3,2 14 7 16 9 SSE 50 60
20.09.2018 18:00:00 8,1 3,2 10 5 18 10 S 65 60
20.09.2018 17:00:00 7,4 2,7 12 7 19 10 SE 62 60
20.09.2018 16:00:00 7,4 2,0 11 6 22 12 SE 75 60
20.09.2018 15:00:00 6,6 1,0 13 7 22 12 ESE 61 60
20.09.2018 14:00:00 7,0 0,2 11 6 19 10 ESE 75 60
20.09.2018 13:00:00 6,4 1,8 11 6 19 11 ESE 75 60
20.09.2018 12:00:00 5,8 -0,5 7 4 17 9 ESE 75 60
20.09.2018 11:00:00 5,6 -1,3 8 4 13 7 SE 73 60
20.09.2018 10:00:00 5,7 -3,2 5 3 8 5 SE 75 60
20.09.2018 09:00:00 6,4 -4,2 6 4 9 5 E 75 60
20.09.2018 08:00:00 4,9 -4,8 6 4 9 5 NNE 69 44
20.09.2018 07:00:00 4,2 -5,4 8 4 11 6 N 75 0
20.09.2018 06:00:00 3,5 -3,7 9 5 13 7 N 75 0
20.09.2018 05:00:00 3,5 -3,8 11 6 14 8 N - 0
20.09.2018 04:00:00 4,0 -4,9 9 5 14 7 N - 0
20.09.2018 03:00:00 4,2 -5,4 8 4 15 8 N - 0
20.09.2018 02:00:00 4,3 -5,4 11 6 13 7 NNW - 0
20.09.2018 01:00:00 3,8 -3,5 10 5 17 9 N - 0
20.09.2018 00:00:00 3,8 -3,0 16 8 21 11 NNW - 0
19.09.2018 23:00:00 3,9 -1,8 13 7 17 9 NNW - 0
19.09.2018 22:00:00 4,9 -4,8 12 6 17 9 NNW - 0
19.09.2018 21:00:00 3,8 -1,6 13 7 21 11 NW - 0
19.09.2018 20:00:00 3,4 2,8 11 6 20 11 NW - 26
19.09.2018 19:00:00 4,4 2,4 5 3 12 7 NW - 58
19.09.2018 18:00:00 4,7 2,3 5 3 15 8 W - 51
19.09.2018 17:00:00 5,1 2,4 4 2 11 6 W - 52
19.09.2018 16:00:00 7,7 3,3 5 3 12 7 S - 57
19.09.2018 15:00:00 5,6 1,9 3 2 17 9 NW - 14
19.09.2018 14:00:00 4,5 3,0 6 3 15 8 SE - 0
19.09.2018 13:00:00 4,1 0,9 4 2 10 5 S - 0
19.09.2018 12:00:00 3,9 3,0 4 2 13 7 ESE - 0
19.09.2018 11:00:00 3,4 1,9 4 2 10 5 ESE - 4
19.09.2018 10:00:00 2,9 1,6 4 2 10 5 N - 11
19.09.2018 09:00:00 2,5 2,3 7 4 16 9 N - 0
19.09.2018 08:00:00 2,9 2,7 9 5 21 11 NNW - 0
19.09.2018 07:00:00 2,1 1,9 10 6 20 11 NNW - 0
19.09.2018 06:00:00 2,9 2,8 13 7 24 13 N - 0
19.09.2018 05:00:00 1,9 1,6 16 9 23 12 NW - 0
19.09.2018 04:00:00 2,1 1,5 16 9 24 13 NNW - 0
19.09.2018 03:00:00 2,2 1,7 17 9 22 12 W - 0
19.09.2018 02:00:00 3,1 -0,6 11 6 22 12 WSW - 0
19.09.2018 01:00:00 2,2 -0,6 13 7 20 11 WNW - 0
19.09.2018 00:00:00 2,5 0,3 13 7 20 11 NW - 0
18.09.2018 23:00:00 3,0 1,1 11 6 21 11 NW - 0
18.09.2018 22:00:00 3,4 0,7 10 6 17 9 NW - 0
18.09.2018 21:00:00 3,1 2,2 11 6 21 12 WSW - 0
18.09.2018 20:00:00 3,5 3,5 16 8 22 12 WSW - 0
18.09.2018 19:00:00 2,7 2,7 19 10 40 22 SSE - 0
18.09.2018 18:00:00 2,1 2,1 19 10 38 21 N - 0
18.09.2018 17:00:00 5,2 5,1 11 6 20 11 E - 0
18.09.2018 16:00:00 5,1 4,4 9 5 18 10 SE - 0
18.09.2018 15:00:00 5,5 4,1 5 3 12 7 ESE - 12
18.09.2018 14:00:00 6,1 2,4 9 5 13 7 ESE - 11
18.09.2018 13:00:00 6,9 3,1 8 4 14 8 SE - 11
18.09.2018 12:00:00 5,9 1,0 5 3 14 8 SE - 0
18.09.2018 11:00:00 6,1 2,7 6 3 15 8 SE - 27
18.09.2018 10:00:00 5,9 2,4 4 2 16 8 S - 49
18.09.2018 09:00:00 5,5 2,0 8 4 17 9 WSW - 58
18.09.2018 08:00:00 4,4 1,8 9 5 27 14 WSW - 13
18.09.2018 07:00:00 4,2 1,7 16 8 33 18 WSW - 0
18.09.2018 06:00:00 4,5 1,3 26 14 36 20 WSW - 0
18.09.2018 05:00:00 4,9 0,5 16 9 24 13 SSW - 0
18.09.2018 04:00:00 5,4 -0,3 18 10 26 14 SSW - 0
18.09.2018 03:00:00 4,7 1,6 21 11 29 15 S - 0
18.09.2018 02:00:00 4,9 2,0 24 13 29 16 S - 0
18.09.2018 01:00:00 5,0 3,3 20 11 27 15 SSW - 0
18.09.2018 00:00:00 4,8 4,0 18 10 24 13 S - 0
17.09.2018 23:00:00 4,9 3,3 17 9 23 12 S - 0
17.09.2018 22:00:00 5,0 3,7 16 9 19 11 SSE - 0
17.09.2018 21:00:00 5,4 3,6 9 5 22 12 ESE - 0
17.09.2018 20:00:00 5,2 4,1 19 10 25 14 ESE - 24
17.09.2018 19:00:00 6,1 4,8 20 11 23 13 ESE - 52
17.09.2018 18:00:00 6,9 4,2 15 8 26 14 SSE - -
17.09.2018 17:00:00 6,6 - 9 5 19 10 ESE - -
17.09.2018 16:00:00 - - 11 6 26 14 ESE - -
17.09.2018 15:00:00 6,1 - 17 9 27 15 SE - -
17.09.2018 14:00:00 6,0 - 21 12 26 14 SE - -
17.09.2018 13:00:00 5,3 4,0 20 11 29 16 SE - -
17.09.2018 12:00:00 4,8 3,5 26 14 33 18 SE - 52
17.09.2018 11:00:00 4,1 3,4 22 12 29 16 ESE - 42
17.09.2018 10:00:00 3,6 3,2 16 9 22 12 SE - 25
17.09.2018 09:00:00 3,2 2,8 8 4 13 7 SSE - 0
17.09.2018 08:00:00 3,5 3,4 9 5 17 9 SW - 0
17.09.2018 07:00:00 3,4 3,3 11 6 22 12 SW - 0
17.09.2018 06:00:00 3,2 3,2 16 9 26 14 WSW - 0
17.09.2018 05:00:00 3,5 3,5 16 9 29 16 WSW - 0
17.09.2018 04:00:00 3,6 3,5 19 11 28 15 WSW - 0
17.09.2018 03:00:00 3,6 3,5 21 11 28 15 WSW - 0
17.09.2018 02:00:00 3,4 3,4 25 13 38 21 WSW - 0
17.09.2018 01:00:00 3,4 2,5 18 10 29 16 SSW - 0
17.09.2018 00:00:00 4,1 3,9 13 7 23 12 S - 0
16.09.2018 23:00:00 4,3 3,9 21 11 26 14 S - 0
16.09.2018 22:00:00 4,2 4,1 22 12 25 14 SE - 0
16.09.2018 21:00:00 4,1 3,9 21 11 28 15 ESE - 0
16.09.2018 20:00:00 4,4 3,6 27 14 31 17 ESE - 0
16.09.2018 19:00:00 5,1 3,8 19 11 23 13 ESE - 50
16.09.2018 18:00:00 7,2 3,6 13 7 16 9 SE - 60
16.09.2018 17:00:00 7,1 3,5 10 6 18 10 SSE - 16
16.09.2018 16:00:00 6,6 3,4 9 5 17 9 SE - 19
16.09.2018 15:00:00 7,3 1,9 10 6 21 12 SW - 46
16.09.2018 14:00:00 7,3 0,7 11 6 26 14 S - 60
16.09.2018 13:00:00 7,0 -0,9 15 8 27 15 WSW - 60
16.09.2018 12:00:00 5,6 -0,9 14 8 35 19 SW - 60
16.09.2018 11:00:00 5,5 -0,8 26 14 45 24 WSW - 60
16.09.2018 10:00:00 4,4 -0,1 30 16 47 26 WSW - 60
16.09.2018 09:00:00 4,1 0,0 32 17 46 25 WSW - 60
16.09.2018 08:00:00 4,0 -1,4 32 17 46 25 WSW - 52
16.09.2018 07:00:00 3,4 -0,8 34 19 51 27 WSW - 0
16.09.2018 06:00:00 3,5 -1,3 33 18 51 27 WSW - 0
16.09.2018 05:00:00 3,5 -1,5 33 18 47 25 WSW - 0

tt = Température de l'air
td = dewpoint
ff = Vitesse du vent
fx = gusts
dd = Direction du vent
vv = visibility
sd = Ensoleillement

stations d'obs. à proximité